KDSV/DSV METAR and TAF weather

Enter ICAO airport designator
Station Type Date Time Source
KDSV METAR 2019/02/23 16:54 UTC NOAA

KDSV 231654Z AUTO 15012KT 10SM CLR 04/M05 A3028 RMK AO2 SLP271 T00391050


Station Type Date Time Source
KDSV Decoded METAR 2019/02/23 16:54 UTC NOAA

DANSVILLE MUNICIPAL AIRPORT, NY, United States (KDSV) 42-34N 077-43W 198M
Feb 23, 2019 - 11:54 AM EST / 2019.02.23 1654 UTC
Wind: from the SSE (150 degrees) at 14 MPH (12 KT):0
Visibility: 10 mile(s):0
Sky conditions: clear
Temperature: 39.0 F (3.9 C)
Dew Point: 23.0 F (-5.0 C)
Relative Humidity: 52%
Pressure (altimeter): 30.28 in. Hg (1025 hPa)
ob: KDSV 231654Z AUTO 15012KT 10SM CLR 04/M05 A3028 RMK AO2 SLP271 T00391050
cycle: 17

Station Type Date Time Source
KDSV TAF UTC NOAA

Error!


Example: see airport list